sensor_id;sensor_type;location;lat;lon;timestamp;temperature;humidity
13052;DHT22;6592;47.484;9.726;2023-08-01T00:00:07;20.20;99.90
13052;DHT22;6592;47.484;9.726;2023-08-01T00:02:37;20.20;99.90
13052;DHT22;6592;47.484;9.726;2023-08-01T00:05:06;20.10;99.90
13052;DHT22;6592;47.484;9.726;2023-08-01T00:07:37;20.10;99.90
13052;DHT22;6592;47.484;9.726;2023-08-01T00:10:06;20.10;99.90
13052;DHT22;6592;47.484;9.726;2023-08-01T00:12:36;20.10;99.90
13052;DHT22;6592;47.484;9.726;2023-08-01T00:15:05;20.10;99.90
13052;DHT22;6592;47.484;9.726;2023-08-01T00:17:34;20.20;99.90
13052;DHT22;6592;47.484;9.726;2023-08-01T00:20:03;20.20;99.90
13052;DHT22;6592;47.484;9.726;2023-08-01T00:22:32;20.20;99.90
13052;DHT22;6592;47.484;9.726;2023-08-01T00:25:03;20.20;99.90
13052;DHT22;6592;47.484;9.726;2023-08-01T00:27:32;20.30;99.90
13052;DHT22;6592;47.484;9.726;2023-08-01T00:30:07;20.30;99.90
13052;DHT22;6592;47.484;9.726;2023-08-01T00:32:37;20.30;99.90
13052;DHT22;6592;47.484;9.726;2023-08-01T00:35:06;20.30;99.90
13052;DHT22;6592;47.484;9.726;2023-08-01T00:37:35;20.30;99.90
13052;DHT22;6592;47.484;9.726;2023-08-01T00:40:08;20.30;99.90
13052;DHT22;6592;47.484;9.726;2023-08-01T00:42:37;20.30;99.90
13052;DHT22;6592;47.484;9.726;2023-08-01T00:45:06;20.40;99.90
13052;DHT22;6592;47.484;9.726;2023-08-01T00:47:35;20.30;99.90
13052;DHT22;6592;47.484;9.726;2023-08-01T00:50:06;20.30;99.90
13052;DHT22;6592;47.484;9.726;2023-08-01T00:52:41;20.20;99.90
13052;DHT22;6592;47.484;9.726;2023-08-01T00:55:13;20.10;99.90
13052;DHT22;6592;47.484;9.726;2023-08-01T00:57:43;20.00;99.90
13052;DHT22;6592;47.484;9.726;2023-08-01T01:00:12;19.90;99.90
13052;DHT22;6592;47.484;9.726;2023-08-01T01:02:41;19.90;99.90
13052;DHT22;6592;47.484;9.726;2023-08-01T01:05:10;19.90;99.90
13052;DHT22;6592;47.484;9.726;2023-08-01T01:07:39;19.90;99.90
13052;DHT22;6592;47.484;9.726;2023-08-01T01:10:08;19.90;99.90
13052;DHT22;6592;47.484;9.726;2023-08-01T01:12:38;19.90;99.90
13052;DHT22;6592;47.484;9.726;2023-08-01T01:15:07;19.80;99.90
13052;DHT22;6592;47.484;9.726;2023-08-01T01:17:37;19.70;99.90
13052;DHT22;6592;47.484;9.726;2023-08-01T01:20:07;19.70;99.90
13052;DHT22;6592;47.484;9.726;2023-08-01T01:22:37;19.60;99.90
13052;DHT22;6592;47.484;9.726;2023-08-01T01:25:09;19.70;99.90
13052;DHT22;6592;47.484;9.726;2023-08-01T01:27:38;19.60;99.90
13052;DHT22;6592;47.484;9.726;2023-08-01T01:30:08;19.60;99.90
13052;DHT22;6592;47.484;9.726;2023-08-01T01:32:37;19.70;99.90
13052;DHT22;6592;47.484;9.726;2023-08-01T01:35:07;19.80;99.90
13052;DHT22;6592;47.484;9.726;2023-08-01T01:37:37;19.80;99.90
13052;DHT22;6592;47.484;9.726;2023-08-01T01:40:07;19.80;99.90
13052;DHT22;6592;47.484;9.726;2023-08-01T01:42:36;19.90;99.90
13052;DHT22;6592;47.484;9.726;2023-08-01T01:45:06;19.90;99.90
13052;DHT22;6592;47.484;9.726;2023-08-01T01:47:35;19.90;99.90
13052;DHT22;6592;47.484;9.726;2023-08-01T01:50:04;19.90;99.90
13052;DHT22;6592;47.484;9.726;2023-08-01T01:52:34;19.80;99.90
13052;DHT22;6592;47.484;9.726;2023-08-01T01:55:05;19.90;99.90
13052;DHT22;6592;47.484;9.726;2023-08-01T01:57:34;19.90;99.90
13052;DHT22;6592;47.484;9.726;2023-08-01T02:00:04;19.90;99.90
13052;DHT22;6592;47.484;9.726;2023-08-01T02:02:37;19.90;99.90
13052;DHT22;6592;47.484;9.726;2023-08-01T02:05:07;19.90;99.90
13052;DHT22;6592;47.484;9.726;2023-08-01T02:07:36;19.90;99.90
13052;DHT22;6592;47.484;9.726;2023-08-01T02:10:09;19.90;99.90
13052;DHT22;6592;47.484;9.726;2023-08-01T02:12:38;19.90;99.90
13052;DHT22;6592;47.484;9.726;2023-08-01T02:15:07;19.90;99.90
13052;DHT22;6592;47.484;9.726;2023-08-01T02:17:36;19.90;99.90
13052;DHT22;6592;47.484;9.726;2023-08-01T02:20:06;19.90;99.90
13052;DHT22;6592;47.484;9.726;2023-08-01T02:22:34;19.80;99.90
13052;DHT22;6592;47.484;9.726;2023-08-01T02:25:04;19.80;99.90
13052;DHT22;6592;47.484;9.726;2023-08-01T02:27:35;19.80;99.90
13052;DHT22;6592;47.484;9.726;2023-08-01T02:30:04;19.80;99.90
13052;DHT22;6592;47.484;9.726;2023-08-01T02:32:33;19.80;99.90
13052;DHT22;6592;47.484;9.726;2023-08-01T02:35:02;19.80;99.90
13052;DHT22;6592;47.484;9.726;2023-08-01T02:37:31;19.80;99.90
13052;DHT22;6592;47.484;9.726;2023-08-01T02:40:00;19.90;99.90
13052;DHT22;6592;47.484;9.726;2023-08-01T02:42:29;19.90;99.90
13052;DHT22;6592;47.484;9.726;2023-08-01T02:45:01;19.80;99.90
13052;DHT22;6592;47.484;9.726;2023-08-01T02:47:30;19.80;99.90
13052;DHT22;6592;47.484;9.726;2023-08-01T02:49:58;19.70;99.90
13052;DHT22;6592;47.484;9.726;2023-08-01T02:52:27;19.70;99.90
13052;DHT22;6592;47.484;9.726;2023-08-01T02:54:56;19.60;99.90
13052;DHT22;6592;47.484;9.726;2023-08-01T02:57:24;19.60;99.90
13052;DHT22;6592;47.484;9.726;2023-08-01T02:59:53;19.60;99.90
13052;DHT22;6592;47.484;9.726;2023-08-01T03:02:23;19.60;99.90
13052;DHT22;6592;47.484;9.726;2023-08-01T03:04:52;19.70;99.90
13052;DHT22;6592;47.484;9.726;2023-08-01T03:07:21;19.70;99.90
13052;DHT22;6592;47.484;9.726;2023-08-01T03:09:49;19.70;99.90
13052;DHT22;6592;47.484;9.726;2023-08-01T03:12:18;19.60;99.90
13052;DHT22;6592;47.484;9.726;2023-08-01T03:14:47;19.60;99.90
13052;DHT22;6592;47.484;9.726;2023-08-01T03:17:16;19.60;99.90
13052;DHT22;6592;47.484;9.726;2023-08-01T03:19:48;19.60;99.90
13052;DHT22;6592;47.484;9.726;2023-08-01T03:22:17;19.60;99.90
13052;DHT22;6592;47.484;9.726;2023-08-01T03:24:46;19.60;99.90
13052;DHT22;6592;47.484;9.726;2023-08-01T03:27:14;19.60;99.90
13052;DHT22;6592;47.484;9.726;2023-08-01T03:29:43;19.60;99.90
13052;DHT22;6592;47.484;9.726;2023-08-01T03:32:12;19.60;99.90
13052;DHT22;6592;47.484;9.726;2023-08-01T03:34:40;19.60;99.90
13052;DHT22;6592;47.484;9.726;2023-08-01T03:37:12;19.60;99.90
13052;DHT22;6592;47.484;9.726;2023-08-01T03:39:41;19.70;99.90
13052;DHT22;6592;47.484;9.726;2023-08-01T03:42:09;19.70;99.90
13052;DHT22;6592;47.484;9.726;2023-08-01T03:44:39;19.70;99.90
13052;DHT22;6592;47.484;9.726;2023-08-01T03:47:08;19.70;99.90
13052;DHT22;6592;47.484;9.726;2023-08-01T03:49:37;19.70;99.90
13052;DHT22;6592;47.484;9.726;2023-08-01T03:52:08;19.70;99.90
13052;DHT22;6592;47.484;9.726;2023-08-01T03:54:38;19.70;99.90
13052;DHT22;6592;47.484;9.726;2023-08-01T03:57:07;19.70;99.90
13052;DHT22;6592;47.484;9.726;2023-08-01T03:59:36;19.70;99.90
13052;DHT22;6592;47.484;9.726;2023-08-01T04:02:04;19.60;99.90
13052;DHT22;6592;47.484;9.726;2023-08-01T04:04:34;19.60;99.90
13052;DHT22;6592;47.484;9.726;2023-08-01T04:07:03;19.60;99.90
13052;DHT22;6592;47.484;9.726;2023-08-01T04:09:32;19.60;99.90
13052;DHT22;6592;47.484;9.726;2023-08-01T04:12:04;19.70;99.90
13052;DHT22;6592;47.484;9.726;2023-08-01T04:14:33;19.70;99.90
13052;DHT22;6592;47.484;9.726;2023-08-01T04:17:03;19.70;99.90
13052;DHT22;6592;47.484;9.726;2023-08-01T04:19:32;19.70;99.90
13052;DHT22;6592;47.484;9.726;2023-08-01T04:22:00;19.70;99.90
13052;DHT22;6592;47.484;9.726;2023-08-01T04:24:30;19.60;99.90
13052;DHT22;6592;47.484;9.726;2023-08-01T04:26:58;19.60;99.90
13052;DHT22;6592;47.484;9.726;2023-08-01T04:29:29;19.50;99.90
13052;DHT22;6592;47.484;9.726;2023-08-01T04:31:58;19.50;99.90
13052;DHT22;6592;47.484;9.726;2023-08-01T04:34:26;19.50;99.90
13052;DHT22;6592;47.484;9.726;2023-08-01T04:36:56;19.40;99.90
13052;DHT22;6592;47.484;9.726;2023-08-01T04:39:24;19.50;99.90
13052;DHT22;6592;47.484;9.726;2023-08-01T04:41:55;19.50;99.90
13052;DHT22;6592;47.484;9.726;2023-08-01T04:44:24;19.50;99.90
13052;DHT22;6592;47.484;9.726;2023-08-01T04:46:54;19.50;99.90
13052;DHT22;6592;47.484;9.726;2023-08-01T04:49:23;19.40;99.90
13052;DHT22;6592;47.484;9.726;2023-08-01T04:51:52;19.40;99.90
13052;DHT22;6592;47.484;9.726;2023-08-01T04:54:21;19.40;99.90
13052;DHT22;6592;47.484;9.726;2023-08-01T04:56:49;19.40;99.90
13052;DHT22;6592;47.484;9.726;2023-08-01T04:59:18;19.40;99.90
13052;DHT22;6592;47.484;9.726;2023-08-01T05:01:47;19.30;99.90
13052;DHT22;6592;47.484;9.726;2023-08-01T05:04:18;19.40;99.90
13052;DHT22;6592;47.484;9.726;2023-08-01T05:06:47;19.30;99.90
13052;DHT22;6592;47.484;9.726;2023-08-01T05:09:16;19.30;99.90
13052;DHT22;6592;47.484;9.726;2023-08-01T05:11:45;19.30;99.90
13052;DHT22;6592;47.484;9.726;2023-08-01T05:14:14;19.30;99.90
13052;DHT22;6592;47.484;9.726;2023-08-01T05:16:42;19.30;99.90
13052;DHT22;6592;47.484;9.726;2023-08-01T05:19:11;19.20;99.90
13052;DHT22;6592;47.484;9.726;2023-08-01T05:21:42;19.30;99.90
13052;DHT22;6592;47.484;9.726;2023-08-01T05:24:11;19.30;99.90
13052;DHT22;6592;47.484;9.726;2023-08-01T05:26:40;19.40;99.90
13052;DHT22;6592;47.484;9.726;2023-08-01T05:29:09;19.50;99.90
13052;DHT22;6592;47.484;9.726;2023-08-01T05:31:38;19.50;99.90
13052;DHT22;6592;47.484;9.726;2023-08-01T05:34:07;19.50;99.90
13052;DHT22;6592;47.484;9.726;2023-08-01T05:36:36;19.60;99.90
13052;DHT22;6592;47.484;9.726;2023-08-01T05:39:07;19.60;99.90
13052;DHT22;6592;47.484;9.726;2023-08-01T05:41:36;19.60;99.90
13052;DHT22;6592;47.484;9.726;2023-08-01T05:44:05;19.60;99.90
13052;DHT22;6592;47.484;9.726;2023-08-01T05:46:33;19.60;99.90
13052;DHT22;6592;47.484;9.726;2023-08-01T05:49:03;19.50;99.90
13052;DHT22;6592;47.484;9.726;2023-08-01T05:51:32;19.60;99.90
13052;DHT22;6592;47.484;9.726;2023-08-01T05:54:00;19.60;99.90
13052;DHT22;6592;47.484;9.726;2023-08-01T05:56:30;19.60;99.90
13052;DHT22;6592;47.484;9.726;2023-08-01T05:58:59;19.60;99.90
13052;DHT22;6592;47.484;9.726;2023-08-01T06:01:28;19.60;99.90
13052;DHT22;6592;47.484;9.726;2023-08-01T06:03:58;19.60;99.90
13052;DHT22;6592;47.484;9.726;2023-08-01T06:06:26;19.60;99.90
13052;DHT22;6592;47.484;9.726;2023-08-01T06:08:56;19.50;99.90
13052;DHT22;6592;47.484;9.726;2023-08-01T06:11:25;19.40;99.90
13052;DHT22;6592;47.484;9.726;2023-08-01T06:13:56;19.30;99.90
13052;DHT22;6592;47.484;9.726;2023-08-01T06:16:25;19.30;99.90
13052;DHT22;6592;47.484;9.726;2023-08-01T06:18:54;19.30;99.90
13052;DHT22;6592;47.484;9.726;2023-08-01T06:21:23;19.30;99.90
13052;DHT22;6592;47.484;9.726;2023-08-01T06:23:53;19.30;99.90
13052;DHT22;6592;47.484;9.726;2023-08-01T06:26:22;19.30;99.90
13052;DHT22;6592;47.484;9.726;2023-08-01T06:28:51;19.20;99.90
13052;DHT22;6592;47.484;9.726;2023-08-01T06:31:22;19.30;99.90
13052;DHT22;6592;47.484;9.726;2023-08-01T06:33:50;19.20;99.90
13052;DHT22;6592;47.484;9.726;2023-08-01T06:36:20;19.30;99.90
13052;DHT22;6592;47.484;9.726;2023-08-01T06:38:51;19.30;99.90
13052;DHT22;6592;47.484;9.726;2023-08-01T06:41:21;19.40;99.90
13052;DHT22;6592;47.484;9.726;2023-08-01T06:43:49;19.50;99.90
13052;DHT22;6592;47.484;9.726;2023-08-01T06:46:18;19.50;99.90
13052;DHT22;6592;47.484;9.726;2023-08-01T06:48:49;19.60;99.90
13052;DHT22;6592;47.484;9.726;2023-08-01T06:51:18;19.70;99.90
13052;DHT22;6592;47.484;9.726;2023-08-01T06:53:48;19.70;99.90
13052;DHT22;6592;47.484;9.726;2023-08-01T06:56:17;19.70;99.90
13052;DHT22;6592;47.484;9.726;2023-08-01T06:58:46;19.70;99.90
13052;DHT22;6592;47.484;9.726;2023-08-01T07:01:15;19.80;99.90
13052;DHT22;6592;47.484;9.726;2023-08-01T07:03:44;19.90;99.90
13052;DHT22;6592;47.484;9.726;2023-08-01T07:06:15;19.90;99.90
13052;DHT22;6592;47.484;9.726;2023-08-01T07:08:44;19.90;99.90
13052;DHT22;6592;47.484;9.726;2023-08-01T07:11:13;19.90;99.90
13052;DHT22;6592;47.484;9.726;2023-08-01T07:13:42;20.00;99.90
13052;DHT22;6592;47.484;9.726;2023-08-01T07:16:11;20.00;99.90
13052;DHT22;6592;47.484;9.726;2023-08-01T07:18:42;20.10;99.90
13052;DHT22;6592;47.484;9.726;2023-08-01T07:21:10;20.20;99.90
13052;DHT22;6592;47.484;9.726;2023-08-01T07:23:42;20.30;99.90
13052;DHT22;6592;47.484;9.726;2023-08-01T07:26:15;20.40;99.90
13052;DHT22;6592;47.484;9.726;2023-08-01T07:28:44;20.50;99.90
13052;DHT22;6592;47.484;9.726;2023-08-01T07:31:13;20.50;99.90
13052;DHT22;6592;47.484;9.726;2023-08-01T07:33:41;20.50;99.90
13052;DHT22;6592;47.484;9.726;2023-08-01T07:36:10;20.40;99.90
13052;DHT22;6592;47.484;9.726;2023-08-01T07:38:40;20.40;99.90
13052;DHT22;6592;47.484;9.726;2023-08-01T07:41:09;20.40;99.90
13052;DHT22;6592;47.484;9.726;2023-08-01T07:43:39;20.40;99.90
13052;DHT22;6592;47.484;9.726;2023-08-01T07:46:09;20.40;99.90
13052;DHT22;6592;47.484;9.726;2023-08-01T07:48:39;20.40;99.90
13052;DHT22;6592;47.484;9.726;2023-08-01T07:51:08;20.40;99.90
13052;DHT22;6592;47.484;9.726;2023-08-01T07:53:38;20.50;99.90
13052;DHT22;6592;47.484;9.726;2023-08-01T07:56:10;20.50;99.90
13052;DHT22;6592;47.484;9.726;2023-08-01T07:58:39;20.50;99.90
13052;DHT22;6592;47.484;9.726;2023-08-01T08:01:08;20.50;99.90
13052;DHT22;6592;47.484;9.726;2023-08-01T08:03:37;20.40;99.90
13052;DHT22;6592;47.484;9.726;2023-08-01T08:06:07;20.20;99.90
13052;DHT22;6592;47.484;9.726;2023-08-01T08:08:35;20.10;99.90
13052;DHT22;6592;47.484;9.726;2023-08-01T08:11:05;20.00;99.90
13052;DHT22;6592;47.484;9.726;2023-08-01T08:13:35;19.90;99.90
13052;DHT22;6592;47.484;9.726;2023-08-01T08:16:05;19.90;99.90
13052;DHT22;6592;47.484;9.726;2023-08-01T08:18:34;19.90;99.90
13052;DHT22;6592;47.484;9.726;2023-08-01T08:21:04;20.00;99.90
13052;DHT22;6592;47.484;9.726;2023-08-01T08:23:33;20.00;99.90
13052;DHT22;6592;47.484;9.726;2023-08-01T08:26:05;19.90;99.90
13052;DHT22;6592;47.484;9.726;2023-08-01T08:28:36;20.00;99.90
13052;DHT22;6592;47.484;9.726;2023-08-01T08:31:07;20.00;99.90
13052;DHT22;6592;47.484;9.726;2023-08-01T08:33:37;19.90;99.90
13052;DHT22;6592;47.484;9.726;2023-08-01T08:36:06;19.90;99.90
13052;DHT22;6592;47.484;9.726;2023-08-01T08:38:35;19.80;99.90
13052;DHT22;6592;47.484;9.726;2023-08-01T08:41:08;19.80;99.90
13052;DHT22;6592;47.484;9.726;2023-08-01T08:43:39;19.70;99.90
13052;DHT22;6592;47.484;9.726;2023-08-01T08:46:09;19.80;99.90
13052;DHT22;6592;47.484;9.726;2023-08-01T08:48:40;19.80;99.90
13052;DHT22;6592;47.484;9.726;2023-08-01T08:51:10;19.90;99.90
13052;DHT22;6592;47.484;9.726;2023-08-01T08:53:40;20.00;99.90
13052;DHT22;6592;47.484;9.726;2023-08-01T08:56:12;20.10;99.90
13052;DHT22;6592;47.484;9.726;2023-08-01T08:58:44;20.10;99.90
13052;DHT22;6592;47.484;9.726;2023-08-01T09:01:14;20.00;99.90
13052;DHT22;6592;47.484;9.726;2023-08-01T09:03:43;20.00;99.90
13052;DHT22;6592;47.484;9.726;2023-08-01T09:06:15;20.10;99.90
13052;DHT22;6592;47.484;9.726;2023-08-01T09:08:49;20.20;99.90
13052;DHT22;6592;47.484;9.726;2023-08-01T09:11:19;20.40;99.90
13052;DHT22;6592;47.484;9.726;2023-08-01T09:13:50;20.50;99.90
13052;DHT22;6592;47.484;9.726;2023-08-01T09:16:19;20.60;99.90
13052;DHT22;6592;47.484;9.726;2023-08-01T09:18:49;20.80;99.90
13052;DHT22;6592;47.484;9.726;2023-08-01T09:21:18;20.80;99.90
13052;DHT22;6592;47.484;9.726;2023-08-01T09:24:08;20.90;99.90
13052;DHT22;6592;47.484;9.726;2023-08-01T09:26:39;21.10;99.90
13052;DHT22;6592;47.484;9.726;2023-08-01T09:29:11;21.20;99.90
13052;DHT22;6592;47.484;9.726;2023-08-01T09:31:41;21.20;99.90
13052;DHT22;6592;47.484;9.726;2023-08-01T09:34:18;21.20;99.90
13052;DHT22;6592;47.484;9.726;2023-08-01T09:36:47;21.20;99.90
13052;DHT22;6592;47.484;9.726;2023-08-01T09:39:17;21.20;99.90
13052;DHT22;6592;47.484;9.726;2023-08-01T09:41:54;21.30;99.90
13052;DHT22;6592;47.484;9.726;2023-08-01T09:44:26;21.20;99.90
13052;DHT22;6592;47.484;9.726;2023-08-01T09:46:59;21.20;99.90
13052;DHT22;6592;47.484;9.726;2023-08-01T09:49:28;21.20;99.90
13052;DHT22;6592;47.484;9.726;2023-08-01T09:51:58;21.10;99.90
13052;DHT22;6592;47.484;9.726;2023-08-01T09:54:28;21.10;99.90
13052;DHT22;6592;47.484;9.726;2023-08-01T09:56:58;21.20;99.90
13052;DHT22;6592;47.484;9.726;2023-08-01T09:59:30;21.00;99.90
13052;DHT22;6592;47.484;9.726;2023-08-01T10:02:01;21.00;99.90
13052;DHT22;6592;47.484;9.726;2023-08-01T10:04:32;21.00;99.90
13052;DHT22;6592;47.484;9.726;2023-08-01T10:07:07;21.00;99.90
13052;DHT22;6592;47.484;9.726;2023-08-01T10:09:36;21.00;99.90
13052;DHT22;6592;47.484;9.726;2023-08-01T10:12:07;21.00;99.90
13052;DHT22;6592;47.484;9.726;2023-08-01T10:14:54;21.00;99.90
13052;DHT22;6592;47.484;9.726;2023-08-01T10:17:24;21.00;99.90
13052;DHT22;6592;47.484;9.726;2023-08-01T10:19:56;20.90;99.90
13052;DHT22;6592;47.484;9.726;2023-08-01T10:22:25;20.90;99.90
13052;DHT22;6592;47.484;9.726;2023-08-01T10:24:55;20.80;99.90
13052;DHT22;6592;47.484;9.726;2023-08-01T10:27:24;20.70;99.90
13052;DHT22;6592;47.484;9.726;2023-08-01T10:29:58;20.80;99.90
13052;DHT22;6592;47.484;9.726;2023-08-01T10:32:31;20.80;99.90
13052;DHT22;6592;47.484;9.726;2023-08-01T10:35:01;20.80;99.90
13052;DHT22;6592;47.484;9.726;2023-08-01T10:37:39;20.70;99.90
13052;DHT22;6592;47.484;9.726;2023-08-01T10:40:09;20.70;99.90
13052;DHT22;6592;47.484;9.726;2023-08-01T10:42:43;20.70;99.90
13052;DHT22;6592;47.484;9.726;2023-08-01T10:45:22;20.70;99.90
13052;DHT22;6592;47.484;9.726;2023-08-01T10:48:06;20.60;99.90
13052;DHT22;6592;47.484;9.726;2023-08-01T10:50:37;20.70;99.90
13052;DHT22;6592;47.484;9.726;2023-08-01T10:53:07;20.80;99.90
13052;DHT22;6592;47.484;9.726;2023-08-01T10:55:41;20.90;99.90
13052;DHT22;6592;47.484;9.726;2023-08-01T10:58:12;21.10;99.90
13052;DHT22;6592;47.484;9.726;2023-08-01T11:00:43;21.10;99.90
13052;DHT22;6592;47.484;9.726;2023-08-01T11:03:12;21.20;99.90
13052;DHT22;6592;47.484;9.726;2023-08-01T11:05:42;21.20;99.90
13052;DHT22;6592;47.484;9.726;2023-08-01T11:08:11;21.30;99.90
13052;DHT22;6592;47.484;9.726;2023-08-01T11:10:41;21.30;99.90
13052;DHT22;6592;47.484;9.726;2023-08-01T11:13:11;21.20;99.90
13052;DHT22;6592;47.484;9.726;2023-08-01T11:15:42;21.30;99.90
13052;DHT22;6592;47.484;9.726;2023-08-01T11:18:11;21.10;99.90
13052;DHT22;6592;47.484;9.726;2023-08-01T11:20:41;20.80;99.90
13052;DHT22;6592;47.484;9.726;2023-08-01T11:23:10;20.40;99.90
13052;DHT22;6592;47.484;9.726;2023-08-01T11:25:43;20.30;99.90
13052;DHT22;6592;47.484;9.726;2023-08-01T11:28:17;20.30;99.90
13052;DHT22;6592;47.484;9.726;2023-08-01T11:30:47;20.30;99.90
13052;DHT22;6592;47.484;9.726;2023-08-01T11:33:19;20.20;99.90
13052;DHT22;6592;47.484;9.726;2023-08-01T11:35:50;20.00;99.90
13052;DHT22;6592;47.484;9.726;2023-08-01T11:38:22;19.90;99.90
13052;DHT22;6592;47.484;9.726;2023-08-01T11:40:51;19.90;99.90
13052;DHT22;6592;47.484;9.726;2023-08-01T11:43:20;19.80;99.90
13052;DHT22;6592;47.484;9.726;2023-08-01T11:45:52;19.70;99.90
13052;DHT22;6592;47.484;9.726;2023-08-01T11:48:21;19.70;99.90
13052;DHT22;6592;47.484;9.726;2023-08-01T11:50:56;19.70;99.90
13052;DHT22;6592;47.484;9.726;2023-08-01T11:53:27;19.80;99.90
13052;DHT22;6592;47.484;9.726;2023-08-01T11:55:56;19.80;99.90
13052;DHT22;6592;47.484;9.726;2023-08-01T11:58:29;19.80;99.90
13052;DHT22;6592;47.484;9.726;2023-08-01T12:01:06;19.80;99.90
13052;DHT22;6592;47.484;9.726;2023-08-01T12:03:43;19.90;99.90
13052;DHT22;6592;47.484;9.726;2023-08-01T12:06:12;19.90;99.90
13052;DHT22;6592;47.484;9.726;2023-08-01T12:08:42;20.00;99.90
13052;DHT22;6592;47.484;9.726;2023-08-01T12:11:19;20.10;99.90
13052;DHT22;6592;47.484;9.726;2023-08-01T12:14:00;20.40;99.90
13052;DHT22;6592;47.484;9.726;2023-08-01T12:16:31;20.30;99.90
13052;DHT22;6592;47.484;9.726;2023-08-01T12:19:00;20.40;99.90
13052;DHT22;6592;47.484;9.726;2023-08-01T12:21:32;20.50;99.90
13052;DHT22;6592;47.484;9.726;2023-08-01T12:24:01;20.60;99.90
13052;DHT22;6592;47.484;9.726;2023-08-01T12:26:30;20.70;99.90
13052;DHT22;6592;47.484;9.726;2023-08-01T12:28:59;20.70;99.90
13052;DHT22;6592;47.484;9.726;2023-08-01T12:31:30;20.70;99.90
13052;DHT22;6592;47.484;9.726;2023-08-01T12:33:59;20.70;99.90
13052;DHT22;6592;47.484;9.726;2023-08-01T12:36:32;20.70;99.90
13052;DHT22;6592;47.484;9.726;2023-08-01T12:39:01;20.60;99.90
13052;DHT22;6592;47.484;9.726;2023-08-01T12:41:31;20.60;99.90
13052;DHT22;6592;47.484;9.726;2023-08-01T12:44:01;20.60;99.90
13052;DHT22;6592;47.484;9.726;2023-08-01T12:46:32;20.60;99.90
13052;DHT22;6592;47.484;9.726;2023-08-01T12:49:01;20.60;99.90
13052;DHT22;6592;47.484;9.726;2023-08-01T12:51:33;20.50;99.90
13052;DHT22;6592;47.484;9.726;2023-08-01T12:54:01;20.60;99.90
13052;DHT22;6592;47.484;9.726;2023-08-01T12:56:31;20.50;99.90
13052;DHT22;6592;47.484;9.726;2023-08-01T12:59:00;20.50;99.90
13052;DHT22;6592;47.484;9.726;2023-08-01T13:01:31;20.60;99.90
13052;DHT22;6592;47.484;9.726;2023-08-01T13:04:00;20.80;99.90
13052;DHT22;6592;47.484;9.726;2023-08-01T13:06:29;20.90;99.90
13052;DHT22;6592;47.484;9.726;2023-08-01T13:08:59;21.10;99.90
13052;DHT22;6592;47.484;9.726;2023-08-01T13:11:28;21.30;99.90
13052;DHT22;6592;47.484;9.726;2023-08-01T13:13:57;21.50;99.90
13052;DHT22;6592;47.484;9.726;2023-08-01T13:16:26;21.60;99.90
13052;DHT22;6592;47.484;9.726;2023-08-01T13:18:57;21.80;99.90
13052;DHT22;6592;47.484;9.726;2023-08-01T13:21:26;21.90;99.90
13052;DHT22;6592;47.484;9.726;2023-08-01T13:23:55;22.00;99.90
13052;DHT22;6592;47.484;9.726;2023-08-01T13:26:24;21.90;99.90
13052;DHT22;6592;47.484;9.726;2023-08-01T13:28:53;21.80;99.90
13052;DHT22;6592;47.484;9.726;2023-08-01T13:31:21;22.00;99.90
13052;DHT22;6592;47.484;9.726;2023-08-01T13:33:51;22.10;99.90
13052;DHT22;6592;47.484;9.726;2023-08-01T13:36:22;22.20;99.90
13052;DHT22;6592;47.484;9.726;2023-08-01T13:38:51;22.30;99.90
13052;DHT22;6592;47.484;9.726;2023-08-01T13:41:21;22.40;99.90
13052;DHT22;6592;47.484;9.726;2023-08-01T13:43:51;22.40;99.90
13052;DHT22;6592;47.484;9.726;2023-08-01T13:46:20;22.40;99.90
13052;DHT22;6592;47.484;9.726;2023-08-01T13:48:52;22.30;99.90
13052;DHT22;6592;47.484;9.726;2023-08-01T13:51:23;22.30;99.90
13052;DHT22;6592;47.484;9.726;2023-08-01T13:53:51;22.40;99.90
13052;DHT22;6592;47.484;9.726;2023-08-01T13:56:21;22.50;99.90
13052;DHT22;6592;47.484;9.726;2023-08-01T13:58:49;22.50;99.90
13052;DHT22;6592;47.484;9.726;2023-08-01T14:01:20;22.60;99.90
13052;DHT22;6592;47.484;9.726;2023-08-01T14:03:49;22.70;99.90
13052;DHT22;6592;47.484;9.726;2023-08-01T14:06:18;22.80;99.90
13052;DHT22;6592;47.484;9.726;2023-08-01T14:08:49;22.80;99.90
13052;DHT22;6592;47.484;9.726;2023-08-01T14:11:17;22.90;99.90
13052;DHT22;6592;47.484;9.726;2023-08-01T14:13:46;23.00;99.90
13052;DHT22;6592;47.484;9.726;2023-08-01T14:16:15;23.00;99.90
13052;DHT22;6592;47.484;9.726;2023-08-01T14:18:45;23.00;99.90
13052;DHT22;6592;47.484;9.726;2023-08-01T14:21:13;23.20;99.90
13052;DHT22;6592;47.484;9.726;2023-08-01T14:23:42;23.30;99.90
13052;DHT22;6592;47.484;9.726;2023-08-01T14:26:13;23.20;99.90
13052;DHT22;6592;47.484;9.726;2023-08-01T14:28:42;23.20;99.90
13052;DHT22;6592;47.484;9.726;2023-08-01T14:31:12;23.10;99.90
13052;DHT22;6592;47.484;9.726;2023-08-01T14:33:41;22.90;99.90
13052;DHT22;6592;47.484;9.726;2023-08-01T14:36:10;22.80;99.90
13052;DHT22;6592;47.484;9.726;2023-08-01T14:38:40;22.80;99.90
13052;DHT22;6592;47.484;9.726;2023-08-01T14:41:12;22.60;99.90
13052;DHT22;6592;47.484;9.726;2023-08-01T14:44:02;22.40;99.90
13052;DHT22;6592;47.484;9.726;2023-08-01T14:46:32;22.10;99.90
13052;DHT22;6592;47.484;9.726;2023-08-01T14:49:02;22.10;99.90
13052;DHT22;6592;47.484;9.726;2023-08-01T14:51:32;21.90;99.90
13052;DHT22;6592;47.484;9.726;2023-08-01T14:54:00;21.80;99.90
13052;DHT22;6592;47.484;9.726;2023-08-01T14:56:31;21.70;99.90
13052;DHT22;6592;47.484;9.726;2023-08-01T14:59:03;21.70;99.90
13052;DHT22;6592;47.484;9.726;2023-08-01T15:01:32;21.90;99.90
13052;DHT22;6592;47.484;9.726;2023-08-01T15:04:01;21.90;99.90
13052;DHT22;6592;47.484;9.726;2023-08-01T15:06:30;22.00;99.90
13052;DHT22;6592;47.484;9.726;2023-08-01T15:08:59;21.90;99.90
13052;DHT22;6592;47.484;9.726;2023-08-01T15:11:27;21.70;99.90
13052;DHT22;6592;47.484;9.726;2023-08-01T15:13:58;21.60;99.90
13052;DHT22;6592;47.484;9.726;2023-08-01T15:16:27;21.50;99.90
13052;DHT22;6592;47.484;9.726;2023-08-01T15:18:55;21.50;99.90
13052;DHT22;6592;47.484;9.726;2023-08-01T15:21:24;21.40;99.90
13052;DHT22;6592;47.484;9.726;2023-08-01T15:23:53;21.30;99.90
13052;DHT22;6592;47.484;9.726;2023-08-01T15:26:22;21.20;99.90
13052;DHT22;6592;47.484;9.726;2023-08-01T15:28:51;21.10;99.90
13052;DHT22;6592;47.484;9.726;2023-08-01T15:31:21;21.10;99.90
13052;DHT22;6592;47.484;9.726;2023-08-01T15:33:51;21.00;99.90
13052;DHT22;6592;47.484;9.726;2023-08-01T15:36:26;20.90;99.90
13052;DHT22;6592;47.484;9.726;2023-08-01T15:38:56;20.80;99.90
13052;DHT22;6592;47.484;9.726;2023-08-01T15:41:26;20.80;99.90
13052;DHT22;6592;47.484;9.726;2023-08-01T15:43:54;20.80;99.90
13052;DHT22;6592;47.484;9.726;2023-08-01T15:46:26;20.80;99.90
13052;DHT22;6592;47.484;9.726;2023-08-01T15:48:56;20.70;99.90
13052;DHT22;6592;47.484;9.726;2023-08-01T15:51:25;20.60;99.90
13052;DHT22;6592;47.484;9.726;2023-08-01T15:53:54;20.50;99.90
13052;DHT22;6592;47.484;9.726;2023-08-01T15:56:23;20.20;99.90
13052;DHT22;6592;47.484;9.726;2023-08-01T15:58:53;20.00;99.90
13052;DHT22;6592;47.484;9.726;2023-08-01T16:01:21;20.00;99.90